Map

Track Data

SID SEASON NUMBER BASIN SUBBASIN NAME ISO_TIME NATURE LAT LON WMO_WIND WMO_PRES WMO_AGENCY TRACK_TYPE DIST2LAND LANDFALL IFLAG USA_AGENCY USA_ATCF_ID USA_LAT USA_LON USA_RECORD USA_STATUS USA_WIND USA_PRES USA_SSHS USA_R34_NE USA_R34_SE USA_R34_SW USA_R34_NW USA_R50_NE USA_R50_SE USA_R50_SW USA_R50_NW USA_R64_NE USA_R64_SE USA_R64_SW USA_R64_NW USA_POCI USA_ROCI USA_RMW USA_EYE TOKYO_LAT TOKYO_LON TOKYO_GRADE TOKYO_WIND TOKYO_PRES TOKYO_R50_DIR TOKYO_R50_LONG TOKYO_R50_SHORT TOKYO_R30_DIR TOKYO_R30_LONG TOKYO_R30_SHORT TOKYO_LAND CMA_LAT CMA_LON CMA_CAT CMA_WIND CMA_PRES HKO_LAT HKO_LON HKO_CAT HKO_WIND HKO_PRES NEWDELHI_LAT NEWDELHI_LON NEWDELHI_GRADE NEWDELHI_WIND NEWDELHI_PRES NEWDELHI_CI NEWDELHI_DP NEWDELHI_POCI REUNION_LAT REUNION_LON REUNION_TYPE REUNION_WIND REUNION_PRES REUNION_TNUM REUNION_CI REUNION_RMW REUNION_R34_NE REUNION_R34_SE REUNION_R34_SW REUNION_R34_NW REUNION_R50_NE REUNION_R50_SE REUNION_R50_SW REUNION_R50_NW REUNION_R64_NE REUNION_R64_SE REUNION_R64_SW REUNION_R64_NW BOM_LAT BOM_LON BOM_TYPE BOM_WIND BOM_PRES BOM_TNUM BOM_CI BOM_RMW BOM_R34_NE BOM_R34_SE BOM_R34_SW BOM_R34_NW BOM_R50_NE BOM_R50_SE BOM_R50_SW BOM_R50_NW BOM_R64_NE BOM_R64_SE BOM_R64_SW BOM_R64_NW BOM_ROCI BOM_POCI BOM_EYE BOM_POS_METHOD BOM_PRES_METHOD NADI_LAT NADI_LON NADI_CAT NADI_WIND NADI_PRES WELLINGTON_LAT WELLINGTON_LON WELLINGTON_WIND WELLINGTON_PRES DS824_LAT DS824_LON DS824_STAGE DS824_WIND DS824_PRES TD9636_LAT TD9636_LON TD9636_STAGE TD9636_WIND TD9636_PRES TD9635_LAT TD9635_LON TD9635_WIND TD9635_PRES TD9635_ROCI NEUMANN_LAT NEUMANN_LON NEUMANN_CLASS NEUMANN_WIND NEUMANN_PRES MLC_LAT MLC_LON MLC_CLASS MLC_WIND MLC_PRES USA_GUST BOM_GUST BOM_GUST_PER REUNION_GUST REUNION_GUST_PER USA_SEAHGT USA_SEARAD_NE USA_SEARAD_SE USA_SEARAD_SW USA_SEARAD_NW STORM_SPEED STORM_DIR
1884070S17067 1884 6 SI MM NOT_NAMED 1884-03-10 00:00:00 TS -17.4000 67.3000 main 1050 996 _________O____ -1 -17.4000 67.3000 TC 12 221
1884070S17067 1884 6 SI MM NOT_NAMED 1884-03-10 03:00:00 TS -17.8402 66.8929 main 996 939 _________P____ -1 -17.8402 66.8929 TC 12 220
1884070S17067 1884 6 SI MM NOT_NAMED 1884-03-10 06:00:00 TS -18.3000 66.5000 main 939 895 _________O____ -1 -18.3000 66.5000 TC 12 217
1884070S17067 1884 6 SI MM NOT_NAMED 1884-03-10 09:00:00 TS -18.7924 66.1348 main 885 844 _________P____ -1 -18.7924 66.1348 TC 12 214
1884070S17067 1884 6 SI MM NOT_NAMED 1884-03-10 12:00:00 TS -19.3000 65.8000 main 844 806 _________O____ -1 -19.3000 65.8000 TC 12 211
1884070S17067 1884 6 SI MM NOT_NAMED 1884-03-10 15:00:00 TS -19.7999 65.4848 main 806 771 _________P____ -1 -19.7999 65.4848 TC 12 209
1884070S17067 1884 6 SI MM NOT_NAMED 1884-03-10 18:00:00 TS -20.3000 65.2000 main 771 740 _________O____ -1 -20.3000 65.2000 TC 11 208
1884070S17067 1884 6 SI MM NOT_NAMED 1884-03-10 21:00:00 TS -20.7700 64.9347 main 741 724 _________P____ -1 -20.7700 64.9347 TC 11 205
1884070S17067 1884 6 SI MM NOT_NAMED 1884-03-11 00:00:00 TS -21.3000 64.7000 main 725 712 _________O____ -1 -21.3000 64.7000 TC 13 200
1884070S17067 1884 6 SI MM NOT_NAMED 1884-03-11 03:00:00 TS -21.9625 64.4702 main 720 710 _________P____ -1 -21.9625 64.4702 TC 15 195
1884070S17067 1884 6 SI MM NOT_NAMED 1884-03-11 06:00:00 TS -22.7000 64.3000 main 723 723 _________O____ -1 -22.7000 64.3000 TC 15 190
1884070S17067 1884 6 SI MM NOT_NAMED 1884-03-11 09:00:00 TS -23.4574 64.1976 main 749 749 _________P____ -1 -23.4574 64.1976 TC 15 183
1884070S17067 1884 6 SI MM NOT_NAMED 1884-03-11 12:00:00 TS -24.2000 64.2000 main 785 785 _________O____ -1 -24.2000 64.2000 TC 14 176
1884070S17067 1884 6 SI MM NOT_NAMED 1884-03-11 15:00:00 TS -24.8650 64.3049 main 836 836 _________P____ -1 -24.8650 64.3049 TC 13 168
1884070S17067 1884 6 SI MM NOT_NAMED 1884-03-11 18:00:00 TS -25.5000 64.5000 main 892 892 _________O____ -1 -25.5000 64.5000 TC 13 164
1884070S17067 1884 6 SI MM NOT_NAMED 1884-03-11 21:00:00 TS -26.1499 64.7129 main 949 949 _________P____ -1 -26.1499 64.7129 TC 14 161
1884070S17067 1884 6 SI MM NOT_NAMED 1884-03-12 00:00:00 TS -26.8000 65.0000 main 1023 1023 _________O____ -1 -26.8000 65.0000 TC 14 156
1884070S17067 1884 6 SI MM NOT_NAMED 1884-03-12 03:00:00 TS -27.4500 65.3702 main 1097 1097 _________P____ -1 -27.4500 65.3702 TC 15 151
1884070S17067 1884 6 SI MM NOT_NAMED 1884-03-12 06:00:00 TS -28.1000 65.8000 main 1180 1180 _________O____ -1 -28.1000 65.8000 TC 15 150
1884070S17067 1884 6 SI MM NOT_NAMED 1884-03-12 09:00:00 TS -28.7723 66.2352 main 1262 1262 _________P____ -1 -28.7723 66.2352 TC 15 149
1884070S17067 1884 6 SI MM NOT_NAMED 1884-03-12 12:00:00 TS -29.4000 66.7000 main 1344 1344 _________O____ -1 -29.4000 66.7000 TC 14 144
1884070S17067 1884 6 SI MM NOT_NAMED 1884-03-12 15:00:00 TS -29.9298 67.1857 main 1418 1418 _________P____ -1 -29.9298 67.1857 TC 13 139
1884070S17067 1884 6 SI MM NOT_NAMED 1884-03-12 18:00:00 TS -30.4000 67.7000 main 1491 1491 _________O____ -1 -30.4000 67.7000 TC 13 135
1884070S17067 1884 6 SI MM NOT_NAMED 1884-03-12 21:00:00 TS -30.8530 68.2414 main 1564 1564 _________P____ -1 -30.8530 68.2414 TC 13 134
1884070S17067 1884 6 SI MM NOT_NAMED 1884-03-13 00:00:00 TS -31.3000 68.8000 main 1636 _________O____ -1 -31.3000 68.8000 TC 13 133

About IBTrACS Database

This database is a web-friendly format of International Best Track Archive for Climate Stewardship (IBTrACS), a global best track data archive curated by NOAA dating back to 1842.

Updated: 2021-12-03